Baie-Saint-Paul, Canada
Current Conditions -  °F | °C
As of 11:34 PM on Thursday 18 Dec 2014 (Local Time) from CYOY Reporting Station
Overcast Overcast  
Wind Chill: 15°   Ceiling: 2400
Heat Index: 25°   Visibility: 9mi
Dew Point: 19°   Wind: 9mph
Humidity: 80%   Direction: 320°NW
Pressure: 29.82"   Gusts: NA
Location:  47.43°N, 70.5°W
Report Text: CYOY 190434Z AUTO 32008KT 280V340 9SM BKN024 OVC060 M04/M07 A2982
Loading
Personal Weather Stations






























Interactive Weather Map New forecast layout! Learn more

10-Day Weather Forecast

Advertisements
Track Severe Weather on mobile